Time;durP1;ratioP1;P1;durP2;ratioP2;P2;SDS_P1;SDS_P2;PMS_P1;PMS_P2;Temp;Humidity;BMP_temperature;BMP_pressure;BME280_temperature;BME280_humidity;BME280_pressure;Samples;Min_cycle;Max_cycle;Signal;HPM_P1;HPM_P2
2023/03/17 00:02:00;;;;;;;0.73;0.73;;;;;;;;;;4999320;28;20188;-85
2023/03/17 00:04:26;;;;;;;0.70;0.70;;;;;;;;;;4995911;28;20193;-84
2023/03/17 00:06:53;;;;;;;0.70;0.70;;;;;;;;;;4994160;28;20272;-87
2023/03/17 00:09:21;;;;;;;0.70;0.70;;;;;;;;;;4994884;28;20173;-85
2023/03/17 00:11:47;;;;;;;0.90;0.90;;;;;;;;;;4994526;28;20719;-85
2023/03/17 00:14:13;;;;;;;0.80;0.80;;;;;;;;;;4993417;28;20213;-84
2023/03/17 00:16:43;;;;;;;0.77;0.77;;;;;;;;;;4994067;28;20678;-85
2023/03/17 00:19:16;;;;;;;0.80;0.80;;;;;;;;;;5000217;28;20173;-86
2023/03/17 00:21:42;;;;;;;0.80;0.80;;;;;;;;;;5005093;28;20201;-86
2023/03/17 00:24:10;;;;;;;0.70;0.70;;;;;;;;;;5001236;28;20197;-85
2023/03/17 00:26:36;;;;;;;0.80;0.80;;;;;;;;;;5000971;28;20276;-86
2023/03/17 00:29:04;;;;;;;0.80;0.80;;;;;;;;;;5002951;28;20227;-84
2023/03/17 00:31:30;;;;;;;0.80;0.80;;;;;;;;;;5005670;28;20204;-86
2023/03/17 00:33:57;;;;;;;0.70;0.70;;;;;;;;;;5005312;28;20193;-85
2023/03/17 00:36:28;;;;;;;0.70;0.70;;;;;;;;;;5004949;28;20179;-86
2023/03/17 00:38:54;;;;;;;0.80;0.80;;;;;;;;;;5006219;28;20169;-85
2023/03/17 00:41:21;;;;;;;0.80;0.80;;;;;;;;;;5005875;28;20173;-85
2023/03/17 00:43:47;;;;;;;0.90;0.90;;;;;;;;;;5003379;28;20267;-84
2023/03/17 00:46:25;;;;;;;0.90;0.90;;;;;;;;;;5003107;28;20228;-85
2023/03/17 00:48:51;;;;;;;0.80;0.80;;;;;;;;;;5003523;28;20656;-85
2023/03/17 00:51:17;;;;;;;0.80;0.80;;;;;;;;;;5003742;28;20181;-85
2023/03/17 00:53:44;;;;;;;0.80;0.80;;;;;;;;;;5002826;28;20197;-84
2023/03/17 00:56:15;;;;;;;0.90;0.90;;;;;;;;;;5003063;28;20208;-85
2023/03/17 00:58:41;;;;;;;0.80;0.80;;;;;;;;;;5003179;28;20185;-84
2023/03/17 01:01:07;;;;;;;0.80;0.80;;;;;;;;;;5003404;28;20272;-85
2023/03/17 01:03:33;;;;;;;0.80;0.80;;;;;;;;;;5002955;28;20213;-84
2023/03/17 01:06:01;;;;;;;0.90;0.90;;;;;;;;;;5003348;28;20227;-85
2023/03/17 01:08:29;;;;;;;0.83;0.83;;;;;;;;;;5003352;28;20197;-85
2023/03/17 01:10:55;;;;;;;0.70;0.70;;;;;;;;;;5003776;28;20267;-85
2023/03/17 01:13:21;;;;;;;0.70;0.70;;;;;;;;;;5002473;28;20217;-84
2023/03/17 01:15:49;;;;;;;0.70;0.70;;;;;;;;;;5002686;28;20201;-85
2023/03/17 01:18:16;;;;;;;0.80;0.80;;;;;;;;;;5002485;28;20208;-85
2023/03/17 01:20:43;;;;;;;0.70;0.70;;;;;;;;;;5002546;28;20249;-86
2023/03/17 01:23:09;;;;;;;0.80;0.80;;;;;;;;;;5002641;28;20197;-86
2023/03/17 01:25:35;;;;;;;0.77;0.77;;;;;;;;;;5002126;28;20216;-86
2023/03/17 01:28:02;;;;;;;0.80;0.80;;;;;;;;;;5002572;28;20173;-85
2023/03/17 01:30:30;;;;;;;0.80;0.80;;;;;;;;;;5002479;28;20181;-84
2023/03/17 01:32:56;;;;;;;0.80;0.80;;;;;;;;;;5002292;28;20711;-84
2023/03/17 01:35:23;;;;;;;0.70;0.70;;;;;;;;;;5001726;28;20644;-85
2023/03/17 01:37:50;;;;;;;0.80;0.80;;;;;;;;;;5002403;28;20188;-84
2023/03/17 01:40:27;;;;;;;0.90;0.90;;;;;;;;;;5001378;28;20181;-85
2023/03/17 01:43:01;;;;;;;0.80;0.80;;;;;;;;;;5000861;28;20204;-86
2023/03/17 01:45:47;;;;;;;0.80;0.80;;;;;;;;;;5001594;28;20801;-85
2023/03/17 01:48:14;;;;;;;0.73;0.73;;;;;;;;;;5002328;28;20182;-84
2023/03/17 01:50:40;;;;;;;0.90;0.90;;;;;;;;;;5002065;28;20186;-84
2023/03/17 01:53:06;;;;;;;0.80;0.80;;;;;;;;;;5001357;28;20201;-84
2023/03/17 01:55:33;;;;;;;0.70;0.70;;;;;;;;;;5000953;28;20185;-85
2023/03/17 01:57:59;;;;;;;0.80;0.80;;;;;;;;;;5000326;28;20177;-85
2023/03/17 02:00:25;;;;;;;0.80;0.80;;;;;;;;;;5001662;28;20173;-84
2023/03/17 02:02:52;;;;;;;0.80;0.80;;;;;;;;;;5000855;28;20201;-84
2023/03/17 02:05:26;;;;;;;0.90;0.90;;;;;;;;;;5000726;28;20694;-84
2023/03/17 02:07:53;;;;;;;0.77;0.77;;;;;;;;;;5000547;28;20173;-86
2023/03/17 02:10:20;;;;;;;0.80;0.80;;;;;;;;;;4999743;28;20181;-84
2023/03/17 02:12:47;;;;;;;0.90;0.90;;;;;;;;;;4998153;28;20213;-85
2023/03/17 02:15:14;;;;;;;0.87;0.87;;;;;;;;;;4997290;28;20564;-84
2023/03/17 02:17:40;;;;;;;0.73;0.73;;;;;;;;;;4997380;28;20277;-84
2023/03/17 02:20:15;;;;;;;0.73;0.73;;;;;;;;;;4996390;28;20192;-85
2023/03/17 02:22:46;;;;;;;0.70;0.70;;;;;;;;;;4996952;28;20228;-85
2023/03/17 02:25:13;;;;;;;0.80;0.80;;;;;;;;;;4998491;28;20220;-85
2023/03/17 02:27:42;;;;;;;0.83;0.83;;;;;;;;;;5002428;28;20556;-84
2023/03/17 02:30:10;;;;;;;0.80;0.80;;;;;;;;;;5005835;28;20180;-86
2023/03/17 02:32:37;;;;;;;0.87;0.87;;;;;;;;;;5003243;28;20208;-85
2023/03/17 02:35:03;;;;;;;0.83;0.83;;;;;;;;;;5003308;28;20174;-86
2023/03/17 02:37:30;;;;;;;0.83;0.83;;;;;;;;;;5002535;28;20173;-85
2023/03/17 02:39:55;;;;;;;0.80;0.80;;;;;;;;;;5003264;28;20177;-85
2023/03/17 02:42:21;;;;;;;0.80;0.80;;;;;;;;;;5003813;28;20184;-85
2023/03/17 02:44:48;;;;;;;0.90;0.90;;;;;;;;;;5002887;28;20221;-85
2023/03/17 02:47:14;;;;;;;0.90;0.90;;;;;;;;;;5003279;28;20174;-85
2023/03/17 02:49:41;;;;;;;0.87;0.87;;;;;;;;;;5002754;28;20188;-85
2023/03/17 02:52:07;;;;;;;0.80;0.80;;;;;;;;;;5002345;28;20191;-85
2023/03/17 02:54:33;;;;;;;0.90;0.90;;;;;;;;;;5001977;28;20197;-85
2023/03/17 02:56:59;;;;;;;0.80;0.80;;;;;;;;;;5002814;28;20173;-86
2023/03/17 02:59:26;;;;;;;0.90;0.90;;;;;;;;;;5002724;28;20204;-84
2023/03/17 03:01:52;;;;;;;0.90;0.90;;;;;;;;;;5003355;28;20169;-84
2023/03/17 03:04:19;;;;;;;0.80;0.80;;;;;;;;;;5002720;28;20204;-84
2023/03/17 03:06:45;;;;;;;0.80;0.80;;;;;;;;;;5003621;28;20189;-85
2023/03/17 03:09:11;;;;;;;0.90;0.90;;;;;;;;;;5002816;28;20181;-85
2023/03/17 03:11:38;;;;;;;0.90;0.90;;;;;;;;;;5002596;28;20177;-86
2023/03/17 03:14:04;;;;;;;0.90;0.90;;;;;;;;;;5002475;28;20278;-85
2023/03/17 03:16:30;;;;;;;0.80;0.80;;;;;;;;;;5002602;28;20185;-85
2023/03/17 03:18:57;;;;;;;0.80;0.80;;;;;;;;;;5002891;28;20360;-85
2023/03/17 03:21:23;;;;;;;0.70;0.70;;;;;;;;;;5004068;28;20200;-85
2023/03/17 03:23:49;;;;;;;0.70;0.70;;;;;;;;;;5003608;28;20201;-85
2023/03/17 03:26:16;;;;;;;0.70;0.70;;;;;;;;;;5003916;28;20248;-84
2023/03/17 03:28:42;;;;;;;0.80;0.80;;;;;;;;;;5003619;28;20184;-85
2023/03/17 03:31:08;;;;;;;0.80;0.80;;;;;;;;;;5004362;28;20184;-85
2023/03/17 03:33:34;;;;;;;0.77;0.77;;;;;;;;;;5003940;28;20205;-85
2023/03/17 03:36:00;;;;;;;0.80;0.80;;;;;;;;;;5004153;28;20184;-84
2023/03/17 03:38:26;;;;;;;0.80;0.80;;;;;;;;;;5003983;28;20177;-85
2023/03/17 03:40:52;;;;;;;0.70;0.70;;;;;;;;;;5002734;28;20201;-85
2023/03/17 03:43:19;;;;;;;0.70;0.70;;;;;;;;;;5002498;28;20682;-85
2023/03/17 03:45:45;;;;;;;0.80;0.80;;;;;;;;;;5001800;28;20620;-84
2023/03/17 03:48:11;;;;;;;0.73;0.73;;;;;;;;;;5011508;28;20167;-84
2023/03/17 03:50:37;;;;;;;0.77;0.77;;;;;;;;;;5017788;28;20173;-85
2023/03/17 03:53:03;;;;;;;0.80;0.80;;;;;;;;;;5015713;28;20204;-85
2023/03/17 03:55:29;;;;;;;0.77;0.77;;;;;;;;;;5018196;28;20180;-85
2023/03/17 03:57:55;;;;;;;0.80;0.80;;;;;;;;;;5018443;28;20183;-85
2023/03/17 04:00:21;;;;;;;0.90;0.90;;;;;;;;;;5015934;28;20184;-85
2023/03/17 04:02:47;;;;;;;0.80;0.80;;;;;;;;;;5003450;28;20573;-84
2023/03/17 04:05:14;;;;;;;0.80;0.80;;;;;;;;;;4999917;28;20223;-85
2023/03/17 04:07:40;;;;;;;0.80;0.80;;;;;;;;;;5004354;28;20176;-85
2023/03/17 04:10:07;;;;;;;0.90;0.90;;;;;;;;;;5001669;28;20181;-84
2023/03/17 04:12:33;;;;;;;0.90;0.90;;;;;;;;;;4999940;28;20730;-85
2023/03/17 04:14:59;;;;;;;0.90;0.90;;;;;;;;;;5000750;28;20184;-85
2023/03/17 04:17:25;;;;;;;0.90;0.90;;;;;;;;;;5000652;28;20719;-84
2023/03/17 04:19:51;;;;;;;0.80;0.80;;;;;;;;;;5001742;28;20181;-85
2023/03/17 04:22:17;;;;;;;0.90;0.90;;;;;;;;;;4999834;28;20184;-84
2023/03/17 04:24:43;;;;;;;0.73;0.73;;;;;;;;;;5000349;28;20655;-85
2023/03/17 04:27:09;;;;;;;0.90;0.90;;;;;;;;;;5001442;28;20188;-84
2023/03/17 04:29:36;;;;;;;0.83;0.83;;;;;;;;;;5000270;28;20581;-84
2023/03/17 04:32:02;;;;;;;1.00;1.00;;;;;;;;;;4999041;28;20656;-84
2023/03/17 04:34:28;;;;;;;0.90;0.90;;;;;;;;;;4998584;28;20560;-85
2023/03/17 04:36:55;;;;;;;0.80;0.80;;;;;;;;;;4998066;28;20177;-85
2023/03/17 04:39:21;;;;;;;0.90;0.90;;;;;;;;;;4997728;28;20599;-85
2023/03/17 04:41:47;;;;;;;0.90;0.90;;;;;;;;;;4996895;28;20192;-85
2023/03/17 04:44:13;;;;;;;0.80;0.80;;;;;;;;;;4997774;28;20205;-84
2023/03/17 04:46:39;;;;;;;0.90;0.90;;;;;;;;;;4998339;28;20229;-84
2023/03/17 04:49:05;;;;;;;0.80;0.80;;;;;;;;;;5001961;28;20188;-85
2023/03/17 04:51:31;;;;;;;0.80;0.80;;;;;;;;;;5001893;28;20177;-85
2023/03/17 04:53:57;;;;;;;0.80;0.80;;;;;;;;;;5002469;28;20227;-85
2023/03/17 04:56:24;;;;;;;0.80;0.80;;;;;;;;;;5002350;28;20177;-85
2023/03/17 04:58:50;;;;;;;0.90;0.90;;;;;;;;;;5002878;28;20248;-85
2023/03/17 05:01:16;;;;;;;0.73;0.73;;;;;;;;;;5002133;28;20177;-84
2023/03/17 05:03:42;;;;;;;0.90;0.90;;;;;;;;;;5001927;28;20212;-84
2023/03/17 05:06:08;;;;;;;0.80;0.80;;;;;;;;;;5003708;28;20227;-84
2023/03/17 05:08:34;;;;;;;0.87;0.87;;;;;;;;;;5003085;28;20177;-85
2023/03/17 05:11:00;;;;;;;0.80;0.80;;;;;;;;;;5003313;28;20174;-85
2023/03/17 05:13:26;;;;;;;0.90;0.90;;;;;;;;;;5001677;28;20224;-84
2023/03/17 05:15:53;;;;;;;0.90;0.90;;;;;;;;;;5004280;28;20204;-85
2023/03/17 05:18:20;;;;;;;0.83;0.83;;;;;;;;;;5006244;28;20245;-85
2023/03/17 05:20:46;;;;;;;0.90;0.90;;;;;;;;;;5006017;28;20874;-85
2023/03/17 05:23:12;;;;;;;0.80;0.80;;;;;;;;;;5006217;28;20189;-85
2023/03/17 05:25:39;;;;;;;0.80;0.80;;;;;;;;;;5019721;28;20197;-86
2023/03/17 05:28:06;;;;;;;0.80;0.80;;;;;;;;;;5020020;28;20191;-86
2023/03/17 05:30:32;;;;;;;0.73;0.73;;;;;;;;;;5020059;28;20193;-86
2023/03/17 05:32:59;;;;;;;0.90;0.90;;;;;;;;;;5020207;28;20192;-86
2023/03/17 05:35:26;;;;;;;0.73;0.73;;;;;;;;;;5020911;28;20173;-84
2023/03/17 05:37:52;;;;;;;0.90;0.90;;;;;;;;;;5021042;28;20200;-85
2023/03/17 05:40:18;;;;;;;0.90;0.90;;;;;;;;;;5020873;28;20169;-85
2023/03/17 05:45:20;;;;;;;0.90;0.90;;;;;;;;;;4995115;28;20220;-83
2023/03/17 05:47:47;;;;;;;0.80;0.80;;;;;;;;;;4997003;28;20611;-82
2023/03/17 05:50:13;;;;;;;0.90;0.90;;;;;;;;;;4996660;28;20212;-81
2023/03/17 05:52:38;;;;;;;0.90;0.90;;;;;;;;;;4995220;28;20208;-82
2023/03/17 05:55:06;;;;;;;0.80;0.80;;;;;;;;;;4996577;28;20205;-81
2023/03/17 05:57:32;;;;;;;0.90;0.90;;;;;;;;;;4996613;28;20240;-83
2023/03/17 05:59:58;;;;;;;0.90;0.90;;;;;;;;;;4996117;28;20177;-81
2023/03/17 06:02:24;;;;;;;0.90;0.90;;;;;;;;;;4994797;28;20659;-80
2023/03/17 06:04:51;;;;;;;0.80;0.80;;;;;;;;;;4995139;28;20269;-81
2023/03/17 06:07:16;;;;;;;0.90;0.90;;;;;;;;;;4995609;28;20637;-81
2023/03/17 06:09:42;;;;;;;0.90;0.90;;;;;;;;;;4997070;28;20203;-80
2023/03/17 06:12:09;;;;;;;0.83;0.83;;;;;;;;;;4996193;28;20692;-81
2023/03/17 06:14:35;;;;;;;0.90;0.90;;;;;;;;;;4996367;28;20316;-81
2023/03/17 06:17:01;;;;;;;0.73;0.73;;;;;;;;;;4996056;28;20193;-80
2023/03/17 06:19:27;;;;;;;0.90;0.90;;;;;;;;;;4995696;28;20630;-80
2023/03/17 06:21:54;;;;;;;0.87;0.87;;;;;;;;;;4995645;28;20256;-80
2023/03/17 06:24:20;;;;;;;0.80;0.80;;;;;;;;;;4995264;28;20580;-80
2023/03/17 06:26:45;;;;;;;0.80;0.80;;;;;;;;;;4995638;28;20213;-81
2023/03/17 06:29:12;;;;;;;0.80;0.80;;;;;;;;;;4996333;28;20185;-80
2023/03/17 06:31:38;;;;;;;0.70;0.70;;;;;;;;;;4994991;28;20535;-81
2023/03/17 06:34:05;;;;;;;0.90;0.90;;;;;;;;;;4994670;28;20238;-81
2023/03/17 06:36:32;;;;;;;0.80;0.80;;;;;;;;;;4995172;28;20649;-81
2023/03/17 06:38:59;;;;;;;0.70;0.70;;;;;;;;;;4993895;28;20213;-79
2023/03/17 06:41:25;;;;;;;0.63;0.63;;;;;;;;;;4995168;28;20240;-81
2023/03/17 06:43:51;;;;;;;0.80;0.80;;;;;;;;;;4995156;28;20351;-81
2023/03/17 06:46:17;;;;;;;0.80;0.80;;;;;;;;;;4995299;28;20228;-81
2023/03/17 06:48:43;;;;;;;0.90;0.90;;;;;;;;;;4994968;28;20264;-81
2023/03/17 06:51:10;;;;;;;0.80;0.80;;;;;;;;;;4995704;28;20185;-81
2023/03/17 06:53:36;;;;;;;0.90;0.90;;;;;;;;;;4995145;28;20251;-80
2023/03/17 06:56:03;;;;;;;0.73;0.73;;;;;;;;;;4994425;28;20185;-81
2023/03/17 06:58:30;;;;;;;0.90;0.90;;;;;;;;;;4995400;28;20177;-78
2023/03/17 07:00:58;;;;;;;0.80;0.80;;;;;;;;;;4994702;28;20189;-80
2023/03/17 07:03:25;;;;;;;0.70;0.70;;;;;;;;;;4994103;28;20208;-79
2023/03/17 07:05:52;;;;;;;0.70;0.70;;;;;;;;;;4996632;28;20236;-82
2023/03/17 07:08:18;;;;;;;0.60;0.60;;;;;;;;;;4997897;28;20177;-82
2023/03/17 07:10:44;;;;;;;0.70;0.70;;;;;;;;;;4994343;28;20173;-81
2023/03/17 07:13:11;;;;;;;0.73;0.73;;;;;;;;;;4992927;28;20205;-81
2023/03/17 07:15:37;;;;;;;0.70;0.70;;;;;;;;;;4994066;28;20173;-81
2023/03/17 07:18:05;;;;;;;0.73;0.73;;;;;;;;;;4993646;28;20216;-81
2023/03/17 07:20:31;;;;;;;0.60;0.60;;;;;;;;;;4993640;28;20177;-82
2023/03/17 07:22:57;;;;;;;0.60;0.60;;;;;;;;;;4993193;28;20723;-81
2023/03/17 07:25:23;;;;;;;0.60;0.60;;;;;;;;;;4994315;28;20248;-81
2023/03/17 07:27:50;;;;;;;0.40;0.40;;;;;;;;;;4994707;28;20226;-81
2023/03/17 07:30:19;;;;;;;0.60;0.60;;;;;;;;;;4993833;28;20189;-81
2023/03/17 07:32:46;;;;;;;0.70;0.70;;;;;;;;;;4993412;28;20205;-82
2023/03/17 07:35:13;;;;;;;0.60;0.60;;;;;;;;;;4995305;28;20177;-82
2023/03/17 07:37:39;;;;;;;0.40;0.40;;;;;;;;;;4994842;28;20542;-81
2023/03/17 07:40:07;;;;;;;0.50;0.50;;;;;;;;;;4995192;28;20212;-80
2023/03/17 07:42:33;;;;;;;0.40;0.40;;;;;;;;;;4996677;28;20197;-84
2023/03/17 07:44:59;;;;;;;0.40;0.40;;;;;;;;;;4996829;28;20213;-83
2023/03/17 07:47:26;;;;;;;0.50;0.50;;;;;;;;;;4998298;28;20189;-80
2023/03/17 07:49:52;;;;;;;0.50;0.50;;;;;;;;;;5002724;28;20637;-82
2023/03/17 07:52:18;;;;;;;0.57;0.57;;;;;;;;;;5001667;28;20211;-82
2023/03/17 07:54:44;;;;;;;0.40;0.40;;;;;;;;;;5001814;28;20193;-81
2023/03/17 07:57:11;;;;;;;0.57;0.57;;;;;;;;;;4997183;28;20184;-82
2023/03/17 07:59:38;;;;;;;0.50;0.50;;;;;;;;;;4996281;28;20185;-82
2023/03/17 08:02:05;;;;;;;0.50;0.50;;;;;;;;;;4996074;28;20611;-83
2023/03/17 08:04:31;;;;;;;0.40;0.40;;;;;;;;;;4995909;28;20641;-81
2023/03/17 08:06:57;;;;;;;0.40;0.40;;;;;;;;;;4995648;28;20227;-82
2023/03/17 08:09:23;;;;;;;0.43;0.43;;;;;;;;;;4995154;28;20656;-82
2023/03/17 08:11:49;;;;;;;0.40;0.40;;;;;;;;;;4995491;28;20540;-81
2023/03/17 08:14:15;;;;;;;0.30;0.30;;;;;;;;;;4995497;28;20260;-81
2023/03/17 08:16:42;;;;;;;0.50;0.50;;;;;;;;;;4996101;28;20177;-79
2023/03/17 08:19:09;;;;;;;0.30;0.30;;;;;;;;;;4995166;28;20232;-81
2023/03/17 08:21:35;;;;;;;0.40;0.40;;;;;;;;;;4995014;28;20196;-81
2023/03/17 08:24:03;;;;;;;0.30;0.30;;;;;;;;;;4994749;28;20193;-81
2023/03/17 08:26:30;;;;;;;0.40;0.40;;;;;;;;;;4994417;28;20220;-81
2023/03/17 08:28:56;;;;;;;0.40;0.40;;;;;;;;;;4993622;28;20187;-79
2023/03/17 08:31:22;;;;;;;0.30;0.30;;;;;;;;;;4994486;28;20177;-81
2023/03/17 08:33:49;;;;;;;0.40;0.40;;;;;;;;;;4994612;28;20197;-81
2023/03/17 08:36:17;;;;;;;0.40;0.40;;;;;;;;;;4993996;28;20639;-81
2023/03/17 08:38:44;;;;;;;0.40;0.40;;;;;;;;;;4994238;28;20188;-81
2023/03/17 08:41:12;;;;;;;0.40;0.40;;;;;;;;;;4995281;28;20172;-80
2023/03/17 08:43:38;;;;;;;0.40;0.40;;;;;;;;;;4994575;28;20220;-80
2023/03/17 08:46:06;;;;;;;0.40;0.40;;;;;;;;;;4996303;28;20212;-81
2023/03/17 08:48:33;;;;;;;0.40;0.40;;;;;;;;;;4996509;28;20237;-81
2023/03/17 08:50:59;;;;;;;0.40;0.40;;;;;;;;;;4998180;28;20197;-82
2023/03/17 08:53:26;;;;;;;0.40;0.40;;;;;;;;;;5000359;28;20287;-80
2023/03/17 08:55:54;;;;;;;0.40;0.40;;;;;;;;;;4999758;28;20196;-82
2023/03/17 08:58:20;;;;;;;0.40;0.40;;;;;;;;;;5002273;28;20260;-79
2023/03/17 09:00:47;;;;;;;0.47;0.47;;;;;;;;;;5007093;28;20199;-79
2023/03/17 09:03:13;;;;;;;0.40;0.40;;;;;;;;;;5006852;28;20204;-79
2023/03/17 09:05:41;;;;;;;0.37;0.37;;;;;;;;;;5006529;28;20213;-79
2023/03/17 09:08:07;;;;;;;0.40;0.40;;;;;;;;;;5003981;28;20211;-80
2023/03/17 09:10:33;;;;;;;0.40;0.40;;;;;;;;;;5000499;28;20204;-81
2023/03/17 09:13:02;;;;;;;0.30;0.30;;;;;;;;;;5000988;28;20211;-80
2023/03/17 09:15:28;;;;;;;0.33;0.33;;;;;;;;;;4999142;28;20181;-81
2023/03/17 09:17:55;;;;;;;0.30;0.30;;;;;;;;;;5000464;28;20200;-82
2023/03/17 09:20:21;;;;;;;0.40;0.40;;;;;;;;;;4996464;28;20652;-82
2023/03/17 09:22:47;;;;;;;0.40;0.40;;;;;;;;;;4996136;28;20284;-82
2023/03/17 09:25:14;;;;;;;0.50;0.50;;;;;;;;;;4997068;28;20205;-83
2023/03/17 09:27:40;;;;;;;0.40;0.40;;;;;;;;;;4997254;28;20536;-82
2023/03/17 09:30:08;;;;;;;0.40;0.40;;;;;;;;;;4997280;28;20188;-82
2023/03/17 09:32:34;;;;;;;0.40;0.40;;;;;;;;;;4996808;28;20336;-84
2023/03/17 09:35:00;;;;;;;0.47;0.47;;;;;;;;;;4997128;28;20312;-81
2023/03/17 09:37:26;;;;;;;0.40;0.40;;;;;;;;;;4997519;28;20178;-81
2023/03/17 09:39:52;;;;;;;0.40;0.40;;;;;;;;;;4995829;28;20209;-83
2023/03/17 09:42:37;;;;;;;0.30;0.30;;;;;;;;;;4997082;28;20512;-82
2023/03/17 09:45:11;;;;;;;0.40;0.40;;;;;;;;;;4996854;28;20657;-82
2023/03/17 09:47:37;;;;;;;0.50;0.50;;;;;;;;;;4993543;28;20192;-82
2023/03/17 09:50:08;;;;;;;0.40;0.40;;;;;;;;;;4996795;28;20181;-82
2023/03/17 09:52:35;;;;;;;0.40;0.40;;;;;;;;;;4996377;28;20204;-82
2023/03/17 09:55:02;;;;;;;0.33;0.33;;;;;;;;;;4996178;28;20217;-80
2023/03/17 09:57:35;;;;;;;0.30;0.30;;;;;;;;;;4992655;28;20216;-81
2023/03/17 10:00:25;;;;;;;0.30;0.30;;;;;;;;;;4994808;28;20188;-81
2023/03/17 10:02:51;;;;;;;0.33;0.33;;;;;;;;;;4993889;28;20228;-81
2023/03/17 10:05:22;;;;;;;0.43;0.43;;;;;;;;;;4998419;28;20235;-82
2023/03/17 10:07:51;;;;;;;0.30;0.30;;;;;;;;;;4998278;28;20181;-82
2023/03/17 10:10:25;;;;;;;0.20;0.20;;;;;;;;;;4998719;28;20173;-82
2023/03/17 10:13:07;;;;;;;0.30;0.30;;;;;;;;;;4996006;28;20208;-82
2023/03/17 10:15:45;;;;;;;0.47;0.47;;;;;;;;;;5003389;28;20223;-81
2023/03/17 10:18:12;;;;;;;0.30;0.30;;;;;;;;;;4998646;28;20185;-81
2023/03/17 10:20:59;;;;;;;0.40;0.40;;;;;;;;;;5002371;28;20188;-81
2023/03/17 10:23:27;;;;;;;0.40;0.40;;;;;;;;;;4985287;28;20194;-81
2023/03/17 10:25:54;;;;;;;0.50;0.50;;;;;;;;;;4996693;28;20253;-81
2023/03/17 10:28:31;;;;;;;0.40;0.40;;;;;;;;;;4998571;28;20184;-80
2023/03/17 10:31:02;;;;;;;0.40;0.40;;;;;;;;;;4998443;28;20184;-80
2023/03/17 10:33:28;;;;;;;0.50;0.50;;;;;;;;;;4998421;28;20341;-80
2023/03/17 10:35:54;;;;;;;0.30;0.30;;;;;;;;;;4998624;28;20776;-80
2023/03/17 10:38:21;;;;;;;0.40;0.40;;;;;;;;;;5000237;28;20212;-80
2023/03/17 10:40:54;;;;;;;0.40;0.40;;;;;;;;;;5001258;28;20181;-82
2023/03/17 10:43:21;;;;;;;0.40;0.40;;;;;;;;;;5002086;28;20220;-81
2023/03/17 10:45:57;;;;;;;0.40;0.40;;;;;;;;;;5002145;28;20165;-80
2023/03/17 10:48:23;;;;;;;0.43;0.43;;;;;;;;;;5001093;28;20177;-82
2023/03/17 10:50:49;;;;;;;0.40;0.40;;;;;;;;;;5003387;28;20232;-80
2023/03/17 10:53:26;;;;;;;0.40;0.40;;;;;;;;;;5002744;28;20239;-79
2023/03/17 10:55:54;;;;;;;0.30;0.30;;;;;;;;;;5009515;28;20293;-79
2023/03/17 10:58:42;;;;;;;0.40;0.40;;;;;;;;;;5013872;28;20180;-80
2023/03/17 11:01:28;;;;;;;0.50;0.50;;;;;;;;;;5016207;28;20170;-80
2023/03/17 11:03:54;;;;;;;0.37;0.37;;;;;;;;;;5010386;28;20201;-80
2023/03/17 11:06:25;;;;;;;0.30;0.30;;;;;;;;;;4998540;28;20177;-81
2023/03/17 11:08:54;;;;;;;0.33;0.33;;;;;;;;;;4998207;28;20189;-82
2023/03/17 11:11:30;;;;;;;0.30;0.30;;;;;;;;;;4999240;28;20188;-81
2023/03/17 11:14:03;;;;;;;0.37;0.37;;;;;;;;;;4998837;28;20201;-82
2023/03/17 11:16:31;;;;;;;0.30;0.30;;;;;;;;;;4997259;28;20633;-79
2023/03/17 11:18:59;;;;;;;0.40;0.40;;;;;;;;;;4996832;28;20640;-80
2023/03/17 11:21:25;;;;;;;0.40;0.40;;;;;;;;;;4996371;28;20648;-80
2023/03/17 11:24:01;;;;;;;0.40;0.40;;;;;;;;;;4999087;28;20232;-80
2023/03/17 11:26:33;;;;;;;0.30;0.30;;;;;;;;;;5000909;28;20177;-79
2023/03/17 11:29:12;;;;;;;0.20;0.20;;;;;;;;;;5001054;28;20714;-80
2023/03/17 11:31:48;;;;;;;0.40;0.40;;;;;;;;;;4996785;28;20188;-81
2023/03/17 11:34:21;;;;;;;0.40;0.40;;;;;;;;;;4998822;28;20659;-80
2023/03/17 11:36:54;;;;;;;0.40;0.40;;;;;;;;;;5002151;28;20695;-80
2023/03/17 11:39:23;;;;;;;0.37;0.37;;;;;;;;;;5002517;28;20598;-80
2023/03/17 11:41:49;;;;;;;0.30;0.30;;;;;;;;;;5001667;28;20181;-81
2023/03/17 11:44:40;;;;;;;0.30;0.30;;;;;;;;;;4998983;28;20224;-80
2023/03/17 11:47:07;;;;;;;0.30;0.30;;;;;;;;;;4999509;28;20196;-81
2023/03/17 11:49:37;;;;;;;0.40;0.40;;;;;;;;;;4999497;28;20549;-81
2023/03/17 11:52:03;;;;;;;0.30;0.30;;;;;;;;;;4998375;28;20271;-80
2023/03/17 11:54:35;;;;;;;0.40;0.40;;;;;;;;;;4997883;28;20197;-80
2023/03/17 11:57:04;;;;;;;0.40;0.40;;;;;;;;;;4998618;28;20221;-81
2023/03/17 11:59:39;;;;;;;0.27;0.27;;;;;;;;;;4998019;28;20181;-81
2023/03/17 12:02:14;;;;;;;0.30;0.30;;;;;;;;;;4997350;28;20189;-80
2023/03/17 12:04:47;;;;;;;0.40;0.40;;;;;;;;;;4997746;28;20243;-81
2023/03/17 12:07:20;;;;;;;0.50;0.50;;;;;;;;;;4997933;28;20173;-80
2023/03/17 12:09:50;;;;;;;0.40;0.40;;;;;;;;;;4998046;28;20239;-84
2023/03/17 12:12:19;;;;;;;0.50;0.50;;;;;;;;;;4999274;28;20243;-83
2023/03/17 12:14:47;;;;;;;0.40;0.40;;;;;;;;;;4997734;28;20280;-81
2023/03/17 12:17:21;;;;;;;0.30;0.30;;;;;;;;;;4998551;28;20625;-83
2023/03/17 12:19:53;;;;;;;0.40;0.40;;;;;;;;;;4997867;28;20212;-83
2023/03/17 12:22:20;;;;;;;0.40;0.40;;;;;;;;;;4997546;28;20520;-82
2023/03/17 12:25:04;;;;;;;0.50;0.50;;;;;;;;;;4997931;28;20182;-82
2023/03/17 12:27:36;;;;;;;0.50;0.50;;;;;;;;;;4998917;28;20184;-82
2023/03/17 12:30:14;;;;;;;0.40;0.40;;;;;;;;;;4998259;28;20205;-82
2023/03/17 12:32:46;;;;;;;0.30;0.30;;;;;;;;;;4997741;28;20201;-82
2023/03/17 12:35:18;;;;;;;0.30;0.30;;;;;;;;;;4997391;28;20212;-81
2023/03/17 12:37:45;;;;;;;0.37;0.37;;;;;;;;;;4987253;28;20281;-83
2023/03/17 12:40:19;;;;;;;0.30;0.30;;;;;;;;;;4993682;28;20177;-81
2023/03/17 12:42:52;;;;;;;0.30;0.30;;;;;;;;;;4995494;28;20203;-82
2023/03/17 12:45:27;;;;;;;0.30;0.30;;;;;;;;;;4995522;28;20197;-82
2023/03/17 12:47:59;;;;;;;0.40;0.40;;;;;;;;;;4995211;28;20181;-81
2023/03/17 12:50:37;;;;;;;0.30;0.30;;;;;;;;;;4995981;28;20185;-82
2023/03/17 12:53:03;;;;;;;0.30;0.30;;;;;;;;;;4979650;28;20192;-82
2023/03/17 12:55:31;;;;;;;0.33;0.33;;;;;;;;;;4993967;28;20664;-81
2023/03/17 12:58:00;;;;;;;0.30;0.30;;;;;;;;;;4995556;28;20251;-81
2023/03/17 13:00:30;;;;;;;0.30;0.30;;;;;;;;;;4993860;28;20193;-81
2023/03/17 13:03:15;;;;;;;0.30;0.30;;;;;;;;;;4979195;28;20273;-82
2023/03/17 13:05:45;;;;;;;0.30;0.30;;;;;;;;;;4995116;28;20188;-82
2023/03/17 13:08:15;;;;;;;0.30;0.30;;;;;;;;;;4995167;28;20260;-82
2023/03/17 13:10:42;;;;;;;0.40;0.40;;;;;;;;;;4996909;28;20265;-81
2023/03/17 13:13:10;;;;;;;0.30;0.30;;;;;;;;;;4997023;28;20197;-81
2023/03/17 13:15:37;;;;;;;0.20;0.20;;;;;;;;;;4996374;28;20209;-80
2023/03/17 13:18:22;;;;;;;0.30;0.30;;;;;;;;;;4998327;28;20177;-81
2023/03/17 13:21:00;;;;;;;0.30;0.30;;;;;;;;;;4980440;28;20616;-81
2023/03/17 13:23:44;;;;;;;0.40;0.40;;;;;;;;;;4994368;28;20196;-80
2023/03/17 13:26:11;;;;;;;0.33;0.33;;;;;;;;;;4995882;28;20206;-81
2023/03/17 13:28:39;;;;;;;0.30;0.30;;;;;;;;;;4995252;28;20284;-81
2023/03/17 13:31:11;;;;;;;0.30;0.30;;;;;;;;;;4994563;28;20216;-80
2023/03/17 13:33:43;;;;;;;0.30;0.30;;;;;;;;;;4993692;28;20265;-82
2023/03/17 13:36:20;;;;;;;0.40;0.40;;;;;;;;;;4996295;28;20209;-81
2023/03/17 13:38:46;;;;;;;0.30;0.30;;;;;;;;;;4998903;28;20605;-80
2023/03/17 13:41:18;;;;;;;0.40;0.40;;;;;;;;;;4998362;28;20200;-78
2023/03/17 13:44:02;;;;;;;0.30;0.30;;;;;;;;;;4997750;28;20209;-82
2023/03/17 13:46:40;;;;;;;0.30;0.30;;;;;;;;;;4995058;28;20273;-80
2023/03/17 13:49:35;;;;;;;0.30;0.30;;;;;;;;;;4997930;28;20576;-79
2023/03/17 13:52:07;;;;;;;0.40;0.40;;;;;;;;;;5005691;28;20217;-79
2023/03/17 13:54:34;;;;;;;0.40;0.40;;;;;;;;;;5006789;28;20223;-80
2023/03/17 13:57:19;;;;;;;0.23;0.23;;;;;;;;;;5005094;28;20723;-80
2023/03/17 14:00:04;;;;;;;0.30;0.30;;;;;;;;;;4990759;28;20694;-82
2023/03/17 14:02:33;;;;;;;0.30;0.30;;;;;;;;;;4981842;28;20288;-82
2023/03/17 14:05:18;;;;;;;0.30;0.30;;;;;;;;;;4984680;28;20304;-82
2023/03/17 14:07:48;;;;;;;0.30;0.30;;;;;;;;;;4995976;28;20184;-82
2023/03/17 14:10:19;;;;;;;0.40;0.40;;;;;;;;;;4992988;28;20239;-80
2023/03/17 14:12:56;;;;;;;0.40;0.40;;;;;;;;;;4997280;28;20205;-82
2023/03/17 14:15:31;;;;;;;0.43;0.43;;;;;;;;;;4987829;28;20208;-81
2023/03/17 14:18:00;;;;;;;0.30;0.30;;;;;;;;;;4996617;28;20181;-82
2023/03/17 14:20:27;;;;;;;0.30;0.30;;;;;;;;;;4996781;28;20181;-82
2023/03/17 14:22:55;;;;;;;0.40;0.40;;;;;;;;;;4995473;28;20205;-81
2023/03/17 14:25:23;;;;;;;0.30;0.30;;;;;;;;;;4996340;28;20177;-80
2023/03/17 14:27:53;;;;;;;0.40;0.40;;;;;;;;;;4996176;28;20220;-81
2023/03/17 14:30:21;;;;;;;0.30;0.30;;;;;;;;;;4996658;28;20170;-81
2023/03/17 14:32:50;;;;;;;0.40;0.40;;;;;;;;;;4995961;28;20276;-81
2023/03/17 14:35:16;;;;;;;0.30;0.30;;;;;;;;;;4994405;28;20243;-81
2023/03/17 14:37:43;;;;;;;0.40;0.40;;;;;;;;;;4996008;28;20909;-82
2023/03/17 14:40:19;;;;;;;0.20;0.20;;;;;;;;;;4996731;28;20679;-80
2023/03/17 14:42:45;;;;;;;0.40;0.40;;;;;;;;;;4995778;28;20305;-79
2023/03/17 14:45:22;;;;;;;0.30;0.30;;;;;;;;;;4996019;28;20252;-81
2023/03/17 14:47:49;;;;;;;0.30;0.30;;;;;;;;;;4987001;28;20183;-80
2023/03/17 14:50:17;;;;;;;0.33;0.33;;;;;;;;;;4995928;28;20188;-81
2023/03/17 14:52:43;;;;;;;0.30;0.30;;;;;;;;;;4996607;28;20200;-81
2023/03/17 14:55:13;;;;;;;0.30;0.30;;;;;;;;;;4997497;28;20224;-81